Terminal Aerodrome Forecast
Issued by NWS Norman, OK

Home | Current Version | Previous Version | Text Only | Print | Product List | Glossary On
Versions: 1 2 3 4 5 6 7 8 9 10 11 12 13 14 15 16 17 18 19 20 21 22 23 24 25 26 27 28
000
FTUS44 KOUN 061741
TAFSPS
TAF
KSPS 061741Z 0618/0718 19017G24KT P6SM BKN040
     FM070100 17012KT P6SM FEW050 BKN250
     FM070700 03010G16KT P6SM VCSH BKN020
     FM071200 VRB10KT 6SM TSRA BR OVC008CB
     FM071600 17010KT 6SM -RA BR OVC010=

USA.gov is the U.S. government's official web portal to all federal, state and local government web resources and services.